sensor_id;sensor_type;location;lat;lon;timestamp;pressure;altitude;pressure_sealevel;temperature;humidity
72855;BME280;60991;51.278;22.550;2023-08-21T00:00:15;99523.81;;;25.63;64.35
72855;BME280;60991;51.278;22.550;2023-08-21T00:01:45;99524.06;;;25.70;64.02
72855;BME280;60991;51.278;22.550;2023-08-21T00:03:15;99523.28;;;25.69;63.79
72855;BME280;60991;51.278;22.550;2023-08-21T00:04:45;99517.50;;;25.71;63.95
72855;BME280;60991;51.278;22.550;2023-08-21T00:06:15;99513.19;;;25.70;63.71
72855;BME280;60991;51.278;22.550;2023-08-21T00:07:46;99507.16;;;25.64;64.15
72855;BME280;60991;51.278;22.550;2023-08-21T00:09:16;99514.38;;;25.60;64.18
72855;BME280;60991;51.278;22.550;2023-08-21T00:10:46;99507.50;;;25.63;64.03
72855;BME280;60991;51.278;22.550;2023-08-21T00:12:16;99511.59;;;25.69;63.75
72855;BME280;60991;51.278;22.550;2023-08-21T00:13:47;99510.47;;;25.70;63.77
72855;BME280;60991;51.278;22.550;2023-08-21T00:15:17;99511.72;;;25.72;63.61
72855;BME280;60991;51.278;22.550;2023-08-21T00:16:47;99518.97;;;25.68;63.83
72855;BME280;60991;51.278;22.550;2023-08-21T00:18:17;99508.41;;;25.67;63.85
72855;BME280;60991;51.278;22.550;2023-08-21T00:19:48;99514.31;;;25.69;63.84
72855;BME280;60991;51.278;22.550;2023-08-21T00:21:19;99511.13;;;25.67;63.59
72855;BME280;60991;51.278;22.550;2023-08-21T00:22:49;99510.22;;;25.63;63.81
72855;BME280;60991;51.278;22.550;2023-08-21T00:24:19;99513.59;;;25.60;64.11
72855;BME280;60991;51.278;22.550;2023-08-21T00:25:49;99510.41;;;25.58;64.21
72855;BME280;60991;51.278;22.550;2023-08-21T00:27:19;99516.84;;;25.53;64.31
72855;BME280;60991;51.278;22.550;2023-08-21T00:28:50;99514.59;;;25.55;63.89
72855;BME280;60991;51.278;22.550;2023-08-21T00:30:20;99511.72;;;25.51;64.08
72855;BME280;60991;51.278;22.550;2023-08-21T00:31:50;99515.56;;;25.50;64.13
72855;BME280;60991;51.278;22.550;2023-08-21T00:33:20;99509.66;;;25.48;64.00
72855;BME280;60991;51.278;22.550;2023-08-21T00:34:50;99514.50;;;25.43;64.21
72855;BME280;60991;51.278;22.550;2023-08-21T00:36:21;99517.22;;;25.43;63.97
72855;BME280;60991;51.278;22.550;2023-08-21T00:37:51;99516.78;;;25.41;64.13
72855;BME280;60991;51.278;22.550;2023-08-21T00:39:21;99518.72;;;25.40;64.15
72855;BME280;60991;51.278;22.550;2023-08-21T00:40:52;99512.34;;;25.36;64.23
72855;BME280;60991;51.278;22.550;2023-08-21T00:42:22;99512.41;;;25.28;64.17
72855;BME280;60991;51.278;22.550;2023-08-21T00:43:52;99506.16;;;25.27;64.38
72855;BME280;60991;51.278;22.550;2023-08-21T00:45:22;99504.25;;;25.28;64.36
72855;BME280;60991;51.278;22.550;2023-08-21T00:46:53;99512.41;;;25.28;64.38
72855;BME280;60991;51.278;22.550;2023-08-21T00:48:24;99508.88;;;25.27;64.18
72855;BME280;60991;51.278;22.550;2023-08-21T00:49:55;99511.47;;;25.24;64.46
72855;BME280;60991;51.278;22.550;2023-08-21T00:51:25;99513.75;;;25.22;64.26
72855;BME280;60991;51.278;22.550;2023-08-21T00:52:56;99513.41;;;25.23;64.36
72855;BME280;60991;51.278;22.550;2023-08-21T00:54:26;99515.34;;;25.23;64.36
72855;BME280;60991;51.278;22.550;2023-08-21T00:55:56;99514.19;;;25.24;64.02
72855;BME280;60991;51.278;22.550;2023-08-21T00:57:26;99506.25;;;25.18;64.07
72855;BME280;60991;51.278;22.550;2023-08-21T00:58:57;99513.00;;;25.12;64.36
72855;BME280;60991;51.278;22.550;2023-08-21T01:00:28;99514.44;;;25.10;64.43
72855;BME280;60991;51.278;22.550;2023-08-21T01:01:59;99512.06;;;25.08;64.37
72855;BME280;60991;51.278;22.550;2023-08-21T01:03:29;99513.66;;;25.09;64.34
72855;BME280;60991;51.278;22.550;2023-08-21T01:04:59;99508.88;;;25.06;64.38
72855;BME280;60991;51.278;22.550;2023-08-21T01:06:30;99506.75;;;25.12;64.00
72855;BME280;60991;51.278;22.550;2023-08-21T01:08:11;99516.84;;;25.11;64.19
72855;BME280;60991;51.278;22.550;2023-08-21T01:09:59;99514.91;;;25.12;64.23
72855;BME280;60991;51.278;22.550;2023-08-21T01:11:40;99518.28;;;25.09;64.13
72855;BME280;60991;51.278;22.550;2023-08-21T01:15:12;99508.88;;;25.06;64.18
72855;BME280;60991;51.278;22.550;2023-08-21T01:16:43;99515.25;;;25.10;64.04
72855;BME280;60991;51.278;22.550;2023-08-21T01:18:18;99512.06;;;25.08;64.11
72855;BME280;60991;51.278;22.550;2023-08-21T01:19:50;99524.38;;;25.06;64.11
72855;BME280;60991;51.278;22.550;2023-08-21T01:21:21;99519.75;;;25.06;64.08
72855;BME280;60991;51.278;22.550;2023-08-21T01:22:51;99518.16;;;25.05;64.10
72855;BME280;60991;51.278;22.550;2023-08-21T01:24:22;99523.94;;;25.04;64.10
72855;BME280;60991;51.278;22.550;2023-08-21T01:25:52;99520.75;;;25.02;63.78
72855;BME280;60991;51.278;22.550;2023-08-21T01:27:22;99521.88;;;25.01;64.19
72855;BME280;60991;51.278;22.550;2023-08-21T01:28:53;99518.38;;;25.00;64.17
72855;BME280;60991;51.278;22.550;2023-08-21T01:30:25;99520.59;;;24.98;64.13
72855;BME280;60991;51.278;22.550;2023-08-21T01:32:09;99516.44;;;25.01;63.92
72855;BME280;60991;51.278;22.550;2023-08-21T01:33:45;99520.53;;;25.07;63.77
72855;BME280;60991;51.278;22.550;2023-08-21T01:35:17;99521.81;;;25.09;63.70
72855;BME280;60991;51.278;22.550;2023-08-21T01:36:48;99519.09;;;25.09;63.54
72855;BME280;60991;51.278;22.550;2023-08-21T01:38:19;99517.97;;;25.10;63.84
72855;BME280;60991;51.278;22.550;2023-08-21T01:39:49;99518.63;;;25.07;63.69
72855;BME280;60991;51.278;22.550;2023-08-21T01:41:19;99519.31;;;25.04;63.73
72855;BME280;60991;51.278;22.550;2023-08-21T01:42:53;99521.56;;;25.02;63.68
72855;BME280;60991;51.278;22.550;2023-08-21T01:44:23;99526.03;;;24.98;63.81
72855;BME280;60991;51.278;22.550;2023-08-21T01:45:54;99524.91;;;24.99;63.89
72855;BME280;60991;51.278;22.550;2023-08-21T01:47:24;99522.53;;;24.98;63.89
72855;BME280;60991;51.278;22.550;2023-08-21T01:48:55;99527.97;;;24.98;63.89
72855;BME280;60991;51.278;22.550;2023-08-21T01:50:25;99524.44;;;24.97;63.58
72855;BME280;60991;51.278;22.550;2023-08-21T01:51:55;99521.56;;;24.94;63.72
72855;BME280;60991;51.278;22.550;2023-08-21T01:53:26;99523.47;;;24.93;63.78
72855;BME280;60991;51.278;22.550;2023-08-21T01:54:56;99528.66;;;24.86;64.11
72855;BME280;60991;51.278;22.550;2023-08-21T01:56:26;99526.59;;;24.83;64.07
72855;BME280;60991;51.278;22.550;2023-08-21T01:57:56;99538.56;;;24.82;64.06
72855;BME280;60991;51.278;22.550;2023-08-21T01:59:26;99537.13;;;24.84;64.14
72855;BME280;60991;51.278;22.550;2023-08-21T02:00:57;99536.81;;;24.86;64.03
72855;BME280;60991;51.278;22.550;2023-08-21T02:02:27;99530.69;;;24.89;63.62
72855;BME280;60991;51.278;22.550;2023-08-21T02:03:57;99536.44;;;24.88;63.78
72855;BME280;60991;51.278;22.550;2023-08-21T02:05:28;99534.53;;;24.88;63.87
72855;BME280;60991;51.278;22.550;2023-08-21T02:06:59;99541.44;;;24.85;63.75
72855;BME280;60991;51.278;22.550;2023-08-21T02:08:32;99537.44;;;24.83;63.85
72855;BME280;60991;51.278;22.550;2023-08-21T02:10:02;99535.84;;;24.82;63.90
72855;BME280;60991;51.278;22.550;2023-08-21T02:11:33;99529.16;;;24.79;64.04
72855;BME280;60991;51.278;22.550;2023-08-21T02:13:03;99534.59;;;24.79;64.16
72855;BME280;60991;51.278;22.550;2023-08-21T02:14:33;99540.66;;;24.76;63.98
72855;BME280;60991;51.278;22.550;2023-08-21T02:16:03;99536.06;;;24.68;64.45
72855;BME280;60991;51.278;22.550;2023-08-21T02:17:34;99534.06;;;24.57;64.77
72855;BME280;60991;51.278;22.550;2023-08-21T02:19:04;99534.22;;;24.51;64.80
72855;BME280;60991;51.278;22.550;2023-08-21T02:20:34;99538.88;;;24.51;64.90
72855;BME280;60991;51.278;22.550;2023-08-21T02:22:04;99538.88;;;24.51;64.99
72855;BME280;60991;51.278;22.550;2023-08-21T02:23:35;99539.88;;;24.46;65.09
72855;BME280;60991;51.278;22.550;2023-08-21T02:25:05;99537.78;;;24.43;65.34
72855;BME280;60991;51.278;22.550;2023-08-21T02:26:35;99538.44;;;24.40;65.66
72855;BME280;60991;51.278;22.550;2023-08-21T02:28:05;99533.66;;;24.37;65.53
72855;BME280;60991;51.278;22.550;2023-08-21T02:29:36;99538.13;;;24.33;65.36
72855;BME280;60991;51.278;22.550;2023-08-21T02:31:09;99535.94;;;24.27;65.40
72855;BME280;60991;51.278;22.550;2023-08-21T02:32:39;99540.38;;;24.23;65.80
72855;BME280;60991;51.278;22.550;2023-08-21T02:34:09;99539.91;;;24.21;66.05
72855;BME280;60991;51.278;22.550;2023-08-21T02:35:40;99542.78;;;24.15;65.75
72855;BME280;60991;51.278;22.550;2023-08-21T02:37:10;99539.00;;;24.08;66.06
72855;BME280;60991;51.278;22.550;2023-08-21T02:38:40;99536.88;;;24.13;66.45
72855;BME280;60991;51.278;22.550;2023-08-21T02:40:10;99533.69;;;24.20;65.72
72855;BME280;60991;51.278;22.550;2023-08-21T02:41:41;99541.19;;;24.23;65.76
72855;BME280;60991;51.278;22.550;2023-08-21T02:43:11;99538.78;;;24.22;65.76
72855;BME280;60991;51.278;22.550;2023-08-21T02:44:41;99540.56;;;24.17;65.65
72855;BME280;60991;51.278;22.550;2023-08-21T02:46:11;99538.63;;;24.18;65.89
72855;BME280;60991;51.278;22.550;2023-08-21T02:47:42;99539.13;;;24.20;65.50
72855;BME280;60991;51.278;22.550;2023-08-21T02:49:12;99547.44;;;24.24;65.57
72855;BME280;60991;51.278;22.550;2023-08-21T02:50:43;99546.78;;;24.18;65.94
72855;BME280;60991;51.278;22.550;2023-08-21T02:52:13;99542.78;;;24.15;65.85
72855;BME280;60991;51.278;22.550;2023-08-21T02:53:43;99540.06;;;24.15;65.86
72855;BME280;60991;51.278;22.550;2023-08-21T02:55:14;99538.31;;;24.20;65.65
72855;BME280;60991;51.278;22.550;2023-08-21T02:56:44;99543.41;;;24.21;65.83
72855;BME280;60991;51.278;22.550;2023-08-21T02:58:14;99541.81;;;24.20;65.64
72855;BME280;60991;51.278;22.550;2023-08-21T02:59:44;99546.13;;;24.21;65.52
72855;BME280;60991;51.278;22.550;2023-08-21T03:01:14;99542.31;;;24.22;65.40
72855;BME280;60991;51.278;22.550;2023-08-21T03:02:45;99540.72;;;24.21;65.47
72855;BME280;60991;51.278;22.550;2023-08-21T03:04:15;99538.47;;;24.23;65.19
72855;BME280;60991;51.278;22.550;2023-08-21T03:05:45;99544.53;;;24.20;65.54
72855;BME280;60991;51.278;22.550;2023-08-21T03:07:16;99541.50;;;24.22;65.08
72855;BME280;60991;51.278;22.550;2023-08-21T03:08:46;99538.47;;;24.23;65.08
72855;BME280;60991;51.278;22.550;2023-08-21T03:10:16;99547.91;;;24.26;65.11
72855;BME280;60991;51.278;22.550;2023-08-21T03:11:46;99543.28;;;24.26;65.05
72855;BME280;60991;51.278;22.550;2023-08-21T03:13:16;99533.22;;;24.27;64.97
72855;BME280;60991;51.278;22.550;2023-08-21T03:14:47;99535.16;;;24.26;65.22
72855;BME280;60991;51.278;22.550;2023-08-21T03:16:17;99539.78;;;24.26;65.07
72855;BME280;60991;51.278;22.550;2023-08-21T03:17:47;99535.16;;;24.26;64.79
72855;BME280;60991;51.278;22.550;2023-08-21T03:19:17;99525.72;;;24.24;64.93
72855;BME280;60991;51.278;22.550;2023-08-21T03:20:47;99536.88;;;24.22;65.14
72855;BME280;60991;51.278;22.550;2023-08-21T03:22:18;99532.56;;;24.21;65.25
72855;BME280;60991;51.278;22.550;2023-08-21T03:23:56;99537.84;;;24.17;65.23
72855;BME280;60991;51.278;22.550;2023-08-21T03:25:27;99543.59;;;24.16;65.49
72855;BME280;60991;51.278;22.550;2023-08-21T03:26:58;99547.09;;;24.16;65.22
72855;BME280;60991;51.278;22.550;2023-08-21T03:28:28;99536.09;;;24.13;65.53
72855;BME280;60991;51.278;22.550;2023-08-21T03:29:58;99535.16;;;24.09;65.21
72855;BME280;60991;51.278;22.550;2023-08-21T03:31:29;99533.09;;;24.06;65.84
72855;BME280;60991;51.278;22.550;2023-08-21T03:32:59;99541.56;;;24.04;65.89
72855;BME280;60991;51.278;22.550;2023-08-21T03:34:30;99537.72;;;24.05;65.59
72855;BME280;60991;51.278;22.550;2023-08-21T03:36:00;99541.72;;;24.08;65.48
72855;BME280;60991;51.278;22.550;2023-08-21T03:37:30;99536.44;;;24.03;65.39
72855;BME280;60991;51.278;22.550;2023-08-21T03:39:01;99534.38;;;24.00;65.71
72855;BME280;60991;51.278;22.550;2023-08-21T03:40:31;99539.63;;;23.96;65.92
72855;BME280;60991;51.278;22.550;2023-08-21T03:42:01;99542.34;;;23.96;65.87
72855;BME280;60991;51.278;22.550;2023-08-21T03:43:32;99531.03;;;23.94;66.12
72855;BME280;60991;51.278;22.550;2023-08-21T03:45:02;99535.19;;;23.92;66.05
72855;BME280;60991;51.278;22.550;2023-08-21T03:46:33;99541.59;;;23.87;66.30
72855;BME280;60991;51.278;22.550;2023-08-21T03:48:03;99542.53;;;23.82;66.15
72855;BME280;60991;51.278;22.550;2023-08-21T03:49:34;99538.56;;;23.80;66.25
72855;BME280;60991;51.278;22.550;2023-08-21T03:51:04;99543.97;;;23.80;66.34
72855;BME280;60991;51.278;22.550;2023-08-21T03:52:34;99532.34;;;23.79;66.49
72855;BME280;60991;51.278;22.550;2023-08-21T03:54:04;99535.38;;;23.78;66.72
72855;BME280;60991;51.278;22.550;2023-08-21T03:55:35;99542.69;;;23.77;66.79
72855;BME280;60991;51.278;22.550;2023-08-21T03:57:05;99547.00;;;23.78;66.35
72855;BME280;60991;51.278;22.550;2023-08-21T03:58:35;99534.56;;;23.77;66.30
72855;BME280;60991;51.278;22.550;2023-08-21T04:00:06;99533.94;;;23.80;66.69
72855;BME280;60991;51.278;22.550;2023-08-21T04:01:36;99539.34;;;23.80;66.54
72855;BME280;60991;51.278;22.550;2023-08-21T04:03:07;99535.53;;;23.81;66.19
72855;BME280;60991;51.278;22.550;2023-08-21T04:04:37;99529.78;;;23.83;66.28
72855;BME280;60991;51.278;22.550;2023-08-21T04:06:07;99534.56;;;23.86;66.17
72855;BME280;60991;51.278;22.550;2023-08-21T04:07:38;99530.09;;;23.90;66.30
72855;BME280;60991;51.278;22.550;2023-08-21T04:09:08;99526.28;;;23.91;66.03
72855;BME280;60991;51.278;22.550;2023-08-21T04:10:38;99533.41;;;23.96;65.97
72855;BME280;60991;51.278;22.550;2023-08-21T04:12:09;99531.03;;;23.94;66.11
72855;BME280;60991;51.278;22.550;2023-08-21T04:13:39;99533.75;;;23.94;66.05
72855;BME280;60991;51.278;22.550;2023-08-21T04:15:09;99526.28;;;23.91;65.87
72855;BME280;60991;51.278;22.550;2023-08-21T04:16:40;99525.00;;;23.89;66.24
72855;BME280;60991;51.278;22.550;2023-08-21T04:18:10;99520.69;;;23.88;66.37
72855;BME280;60991;51.278;22.550;2023-08-21T04:19:40;99524.69;;;23.90;66.38
72855;BME280;60991;51.278;22.550;2023-08-21T04:21:10;99522.88;;;23.94;66.08
72855;BME280;60991;51.278;22.550;2023-08-21T04:22:40;99524.63;;;23.99;66.11
72855;BME280;60991;51.278;22.550;2023-08-21T04:24:11;99527.50;;;24.02;65.58
72855;BME280;60991;51.278;22.550;2023-08-21T04:25:41;99524.97;;;24.06;65.78
72855;BME280;60991;51.278;22.550;2023-08-21T04:27:11;99526.41;;;24.03;65.73
72855;BME280;60991;51.278;22.550;2023-08-21T04:28:41;99522.88;;;24.03;65.79
72855;BME280;60991;51.278;22.550;2023-08-21T04:30:12;99528.63;;;24.01;65.79
72855;BME280;60991;51.278;22.550;2023-08-21T04:31:42;99528.31;;;24.03;65.71
72855;BME280;60991;51.278;22.550;2023-08-21T04:33:12;99529.44;;;24.02;65.95
72855;BME280;60991;51.278;22.550;2023-08-21T04:34:42;99533.25;;;24.01;66.06
72855;BME280;60991;51.278;22.550;2023-08-21T04:36:16;99527.50;;;24.02;65.72
72855;BME280;60991;51.278;22.550;2023-08-21T04:37:47;99542.66;;;24.03;66.15
72855;BME280;60991;51.278;22.550;2023-08-21T04:39:17;99541.06;;;24.02;66.27
72855;BME280;60991;51.278;22.550;2023-08-21T04:40:47;99542.19;;;24.10;65.98
72855;BME280;60991;51.278;22.550;2023-08-21T04:42:18;99546.13;;;24.12;65.59
72855;BME280;60991;51.278;22.550;2023-08-21T04:43:48;99548.22;;;24.15;65.91
72855;BME280;60991;51.278;22.550;2023-08-21T04:45:18;99548.22;;;24.15;65.51
72855;BME280;60991;51.278;22.550;2023-08-21T04:46:48;99545.03;;;24.13;65.97
72855;BME280;60991;51.278;22.550;2023-08-21T04:48:19;99543.09;;;24.14;65.92
72855;BME280;60991;51.278;22.550;2023-08-21T04:49:50;99545.03;;;24.13;65.63
72855;BME280;60991;51.278;22.550;2023-08-21T04:51:20;99547.41;;;24.15;65.66
72855;BME280;60991;51.278;22.550;2023-08-21T04:52:50;99544.38;;;24.16;66.03
72855;BME280;60991;51.278;22.550;2023-08-21T04:54:20;99544.22;;;24.22;65.50
72855;BME280;60991;51.278;22.550;2023-08-21T04:55:51;99536.25;;;24.25;65.93
72855;BME280;60991;51.278;22.550;2023-08-21T04:57:21;99541.53;;;24.30;65.62
72855;BME280;60991;51.278;22.550;2023-08-21T04:58:52;99537.00;;;24.34;65.60
72855;BME280;60991;51.278;22.550;2023-08-21T05:00:22;99538.75;;;24.39;65.59
72855;BME280;60991;51.278;22.550;2023-08-21T05:01:52;99536.19;;;24.42;65.31
72855;BME280;60991;51.278;22.550;2023-08-21T05:03:23;99540.19;;;24.45;65.29
72855;BME280;60991;51.278;22.550;2023-08-21T05:04:53;99536.47;;;24.49;65.07
72855;BME280;60991;51.278;22.550;2023-08-21T05:06:23;99531.50;;;24.51;64.72
72855;BME280;60991;51.278;22.550;2023-08-21T05:07:53;99530.06;;;24.54;65.01
72855;BME280;60991;51.278;22.550;2023-08-21T05:09:23;99525.44;;;24.55;64.98
72855;BME280;60991;51.278;22.550;2023-08-21T05:11:00;99524.78;;;24.58;64.92
72855;BME280;60991;51.278;22.550;2023-08-21T05:12:30;99525.88;;;24.65;64.73
72855;BME280;60991;51.278;22.550;2023-08-21T05:14:01;99529.66;;;24.73;64.70
72855;BME280;60991;51.278;22.550;2023-08-21T05:15:31;99528.38;;;24.79;64.29
72855;BME280;60991;51.278;22.550;2023-08-21T05:17:01;99527.88;;;24.77;64.36
72855;BME280;60991;51.278;22.550;2023-08-21T05:18:31;99522.75;;;24.84;64.24
72855;BME280;60991;51.278;22.550;2023-08-21T05:20:02;99523.66;;;24.88;64.10
72855;BME280;60991;51.278;22.550;2023-08-21T05:21:32;99525.94;;;24.86;64.32
72855;BME280;60991;51.278;22.550;2023-08-21T05:23:02;99526.53;;;24.92;64.06
72855;BME280;60991;51.278;22.550;2023-08-21T05:24:32;99523.00;;;24.91;64.42
72855;BME280;60991;51.278;22.550;2023-08-21T05:26:03;99524.78;;;24.87;64.42
72855;BME280;60991;51.278;22.550;2023-08-21T05:27:33;99532.75;;;24.92;64.68
72855;BME280;60991;51.278;22.550;2023-08-21T05:29:03;99534.84;;;24.95;64.43
72855;BME280;60991;51.278;22.550;2023-08-21T05:30:35;99533.53;;;25.01;64.57
72855;BME280;60991;51.278;22.550;2023-08-21T05:32:05;99532.09;;;25.04;64.65
72855;BME280;60991;51.278;22.550;2023-08-21T05:33:36;99533.47;;;25.10;64.22
72855;BME280;60991;51.278;22.550;2023-08-21T05:35:06;99530.88;;;25.13;64.48
72855;BME280;60991;51.278;22.550;2023-08-21T05:36:36;99538.53;;;25.20;64.47
72855;BME280;60991;51.278;22.550;2023-08-21T05:38:06;99537.50;;;25.25;64.24
72855;BME280;60991;51.278;22.550;2023-08-21T05:39:37;99538.19;;;25.22;64.51
72855;BME280;60991;51.278;22.550;2023-08-21T05:41:07;99536.53;;;25.29;64.38
72855;BME280;60991;51.278;22.550;2023-08-21T05:42:37;99535.72;;;25.29;64.38
72855;BME280;60991;51.278;22.550;2023-08-21T05:44:07;99544.44;;;25.22;64.57
72855;BME280;60991;51.278;22.550;2023-08-21T05:45:37;99547.16;;;25.22;64.51
72855;BME280;60991;51.278;22.550;2023-08-21T05:47:08;99550.53;;;25.19;65.00
72855;BME280;60991;51.278;22.550;2023-08-21T05:48:38;99540.69;;;25.27;64.27
72855;BME280;60991;51.278;22.550;2023-08-21T05:50:08;99547.88;;;25.31;64.15
72855;BME280;60991;51.278;22.550;2023-08-21T05:51:39;99553.09;;;25.36;64.05
72855;BME280;60991;51.278;22.550;2023-08-21T05:53:09;99556.66;;;25.28;64.52
72855;BME280;60991;51.278;22.550;2023-08-21T05:54:39;99552.31;;;25.36;64.21
72855;BME280;60991;51.278;22.550;2023-08-21T05:56:09;99557.56;;;25.41;63.57
72855;BME280;60991;51.278;22.550;2023-08-21T05:57:39;99559.59;;;25.44;63.44
72855;BME280;60991;51.278;22.550;2023-08-21T05:59:10;99559.81;;;25.39;63.65
72855;BME280;60991;51.278;22.550;2023-08-21T06:00:40;99555.56;;;25.50;63.81
72855;BME280;60991;51.278;22.550;2023-08-21T06:02:11;99557.16;;;25.51;63.00
72855;BME280;60991;51.278;22.550;2023-08-21T06:03:43;99557.28;;;25.54;63.10
72855;BME280;60991;51.278;22.550;2023-08-21T06:05:13;99560.47;;;25.57;63.28
72855;BME280;60991;51.278;22.550;2023-08-21T06:06:43;99566.66;;;25.66;62.96
72855;BME280;60991;51.278;22.550;2023-08-21T06:08:13;99564.66;;;25.75;62.93
72855;BME280;60991;51.278;22.550;2023-08-21T06:09:44;99562.50;;;25.80;62.40
72855;BME280;60991;51.278;22.550;2023-08-21T06:11:14;99557.28;;;25.75;62.36
72855;BME280;60991;51.278;22.550;2023-08-21T06:12:44;99566.13;;;25.72;62.13
72855;BME280;60991;51.278;22.550;2023-08-21T06:14:14;99559.56;;;25.73;62.68
72855;BME280;60991;51.278;22.550;2023-08-21T06:15:45;99558.56;;;25.78;62.23
72855;BME280;60991;51.278;22.550;2023-08-21T06:17:15;99560.84;;;25.88;62.15
72855;BME280;60991;51.278;22.550;2023-08-21T06:18:45;99564.50;;;25.92;61.85
72855;BME280;60991;51.278;22.550;2023-08-21T06:20:15;99561.56;;;25.97;61.71
72855;BME280;60991;51.278;22.550;2023-08-21T06:21:45;99570.97;;;26.00;61.51
72855;BME280;60991;51.278;22.550;2023-08-21T06:23:16;99567.25;;;26.04;61.50
72855;BME280;60991;51.278;22.550;2023-08-21T06:24:46;99575.06;;;26.06;61.30
72855;BME280;60991;51.278;22.550;2023-08-21T06:26:16;99572.50;;;26.09;61.15
72855;BME280;60991;51.278;22.550;2023-08-21T06:27:46;99569.44;;;26.11;61.04
72855;BME280;60991;51.278;22.550;2023-08-21T06:29:17;99574.31;;;26.17;61.29
72855;BME280;60991;51.278;22.550;2023-08-21T06:30:47;99575.91;;;26.18;61.23
72855;BME280;60991;51.278;22.550;2023-08-21T06:32:17;99566.41;;;26.25;60.73
72855;BME280;60991;51.278;22.550;2023-08-21T06:33:47;99568.31;;;26.24;60.81
72855;BME280;60991;51.278;22.550;2023-08-21T06:35:17;99569.25;;;26.28;60.86
72855;BME280;60991;51.278;22.550;2023-08-21T06:36:48;99574.56;;;26.25;60.48
72855;BME280;60991;51.278;22.550;2023-08-21T06:38:18;99568.78;;;26.26;60.35
72855;BME280;60991;51.278;22.550;2023-08-21T06:39:48;99574.50;;;26.33;60.48
72855;BME280;60991;51.278;22.550;2023-08-21T06:41:19;99570.88;;;26.29;60.26
72855;BME280;60991;51.278;22.550;2023-08-21T06:42:49;99580.28;;;26.32;60.12
72855;BME280;60991;51.278;22.550;2023-08-21T06:44:20;99570.88;;;26.29;60.34
72855;BME280;60991;51.278;22.550;2023-08-21T06:45:50;99580.38;;;26.35;60.20
72855;BME280;60991;51.278;22.550;2023-08-21T06:47:20;99577.91;;;26.42;60.08
72855;BME280;60991;51.278;22.550;2023-08-21T06:48:50;99582.47;;;26.50;60.17
72855;BME280;60991;51.278;22.550;2023-08-21T06:50:27;99581.56;;;26.59;59.78
72855;BME280;60991;51.278;22.550;2023-08-21T06:51:58;99584.75;;;26.61;59.78
72855;BME280;60991;51.278;22.550;2023-08-21T06:53:30;99589.84;;;26.62;59.29
72855;BME280;60991;51.278;22.550;2023-08-21T06:55:00;99585.66;;;26.65;59.39
72855;BME280;60991;51.278;22.550;2023-08-21T06:56:30;99586.59;;;26.69;59.43
72855;BME280;60991;51.278;22.550;2023-08-21T06:58:00;99592.25;;;26.76;59.62
72855;BME280;60991;51.278;22.550;2023-08-21T06:59:30;99592.25;;;26.76;59.92
72855;BME280;60991;51.278;22.550;2023-08-21T07:01:01;99591.44;;;26.75;59.79
72855;BME280;60991;51.278;22.550;2023-08-21T07:02:31;99587.03;;;26.83;59.67
72855;BME280;60991;51.278;22.550;2023-08-21T07:04:01;99587.50;;;26.85;59.94
72855;BME280;60991;51.278;22.550;2023-08-21T07:05:31;99594.19;;;26.87;59.45
72855;BME280;60991;51.278;22.550;2023-08-21T07:07:02;99598.75;;;26.96;59.39
72855;BME280;60991;51.278;22.550;2023-08-21T07:08:32;99601.72;;;27.03;59.29
72855;BME280;60991;51.278;22.550;2023-08-21T07:10:02;99603.41;;;27.07;59.09
72855;BME280;60991;51.278;22.550;2023-08-21T07:11:33;99597.84;;;27.16;57.59
72855;BME280;60991;51.278;22.550;2023-08-21T07:13:03;99592.72;;;27.14;57.60
72855;BME280;60991;51.278;22.550;2023-08-21T07:14:33;99594.44;;;27.19;57.64
72855;BME280;60991;51.278;22.550;2023-08-21T07:16:04;99601.13;;;27.21;57.06
72855;BME280;60991;51.278;22.550;2023-08-21T07:17:34;99601.25;;;27.25;57.48
72855;BME280;60991;51.278;22.550;2023-08-21T07:19:04;99594.66;;;27.26;58.12
72855;BME280;60991;51.278;22.550;2023-08-21T07:20:34;99593.59;;;27.31;58.00
72855;BME280;60991;51.278;22.550;2023-08-21T07:22:05;99601.56;;;27.36;58.72
72855;BME280;60991;51.278;22.550;2023-08-21T07:23:35;99598.59;;;27.41;57.73
72855;BME280;60991;51.278;22.550;2023-08-21T07:25:05;99608.91;;;27.47;57.04
72855;BME280;60991;51.278;22.550;2023-08-21T07:26:36;99586.06;;;27.52;57.08
72855;BME280;60991;51.278;22.550;2023-08-21T07:28:06;99594.69;;;27.54;57.51
72855;BME280;60991;51.278;22.550;2023-08-21T07:29:36;99596.28;;;27.55;57.97
72855;BME280;60991;51.278;22.550;2023-08-21T07:31:06;99587.75;;;27.56;58.14
72855;BME280;60991;51.278;22.550;2023-08-21T07:32:36;99591.31;;;27.57;57.86
72855;BME280;60991;51.278;22.550;2023-08-21T07:34:07;99589.16;;;27.63;57.30
72855;BME280;60991;51.278;22.550;2023-08-21T07:35:37;99589.22;;;27.66;56.86
72855;BME280;60991;51.278;22.550;2023-08-21T07:37:08;99581.50;;;27.68;56.61
72855;BME280;60991;51.278;22.550;2023-08-21T07:38:38;99586.38;;;27.75;56.60
72855;BME280;60991;51.278;22.550;2023-08-21T07:40:08;99590.34;;;27.77;56.43
72855;BME280;60991;51.278;22.550;2023-08-21T07:41:38;99589.31;;;27.82;56.60
72855;BME280;60991;51.278;22.550;2023-08-21T07:43:09;99590.63;;;27.88;56.55
72855;BME280;60991;51.278;22.550;2023-08-21T07:44:39;99597.88;;;27.96;56.27
72855;BME280;60991;51.278;22.550;2023-08-21T07:46:11;99591.72;;;27.99;55.71
72855;BME280;60991;51.278;22.550;2023-08-21T07:47:41;99597.97;;;28.00;55.21
72855;BME280;60991;51.278;22.550;2023-08-21T07:49:12;99591.81;;;28.03;55.71
72855;BME280;60991;51.278;22.550;2023-08-21T07:50:50;99594.28;;;28.08;55.31
72855;BME280;60991;51.278;22.550;2023-08-21T07:52:21;99589.03;;;28.15;55.41
72855;BME280;60991;51.278;22.550;2023-08-21T07:53:51;99590.19;;;28.14;55.54
72855;BME280;60991;51.278;22.550;2023-08-21T07:55:22;99590.97;;;28.14;54.90